METAR Data
IDs: Format: Raw Decoded Include TAF

Data at: 0357 UTC 24 Sep 2020

PTTP 240353Z 15003KT 8SM -SHRA BKN017TCU OVC120 26/25 A2980 RMK VIS SE-S 3 SHRAE01B21 TCU ALQDS SLP090 T02610250